In Rescue
 
Open Full Screen Window  High Contrast Mode
Wind Gusting 00 knots
03
October 19, 2020 6:38 PM CDT
Weather Information
Wind Direction
  100 °
Wind Speed
  03 kt (3 mph)
Wind Gust
  00 kt (0 mph)
Altimeter
30.23 in
Visibility
10 SM
Temperature
01° C
34° F
Dewpoint
-04° C
25° F
Humidity
70%
1hr Rain Fall
00.00 in.
24hr Rain Fall
00.00 in.
Sky Condition
Overcast @ 7,000 ft
Broken @ 4,600 ft
VFR

METAR KTOB 192338Z AUTO 10003KT 10SM BKN046 OVC070 01/M04 A3023 RMK AO2 PWINO

FAA Disclaimer: The data displayed is for advisory purposes only and is not to be used for flight planning or operations.